Time;durP1;ratioP1;P1;durP2;ratioP2;P2;SDS_P1;SDS_P2;PMS_P1;PMS_P2;Temp;Humidity;BMP_temperature;BMP_pressure;BME280_temperature;BME280_humidity;BME280_pressure;Samples;Min_cycle;Max_cycle;Signal;HPM_P1;HPM_P2
2021/12/15 00:00:29;;;;;;;33.03;22.87;;;5.60;99.90;;;;;;5071011;28;20293;-74
2021/12/15 00:02:55;;;;;;;34.03;22.23;;;5.60;99.90;;;;;;5072015;28;20636;-75
2021/12/15 00:05:24;;;;;;;36.83;22.97;;;5.70;99.90;;;;;;5071883;28;20265;-74
2021/12/15 00:07:53;;;;;;;34.57;23.23;;;5.60;99.90;;;;;;5071611;28;20190;-75
2021/12/15 00:10:20;;;;;;;34.83;23.77;;;5.60;99.90;;;;;;5071796;28;20206;-77
2021/12/15 00:12:47;;;;;;;35.80;23.43;;;5.60;99.90;;;;;;5075378;28;20236;-75
2021/12/15 00:15:12;;;;;;;32.33;24.37;;;5.60;99.90;;;;;;5076034;28;20512;-74
2021/12/15 00:17:38;;;;;;;33.70;22.20;;;5.60;99.90;;;;;;5076432;28;20696;-74
2021/12/15 00:20:07;;;;;;;34.07;23.63;;;5.60;99.90;;;;;;5075231;28;20209;-74
2021/12/15 00:22:33;;;;;;;34.33;23.13;;;5.60;99.90;;;;;;5074197;28;20183;-74
2021/12/15 00:24:58;;;;;;;34.60;22.47;;;5.50;99.90;;;;;;5071432;28;20178;-74
2021/12/15 00:27:24;;;;;;;35.30;23.60;;;5.50;99.90;;;;;;5071189;28;20170;-74
2021/12/15 00:29:50;;;;;;;31.10;21.93;;;5.50;99.90;;;;;;5070863;28;20210;-74
2021/12/15 00:32:16;;;;;;;33.60;22.33;;;5.50;99.90;;;;;;5071250;28;20694;-74
2021/12/15 00:34:42;;;;;;;32.67;22.37;;;5.50;99.90;;;;;;5071146;28;20179;-74
2021/12/15 00:37:08;;;;;;;36.33;23.03;;;5.50;99.90;;;;;;5071090;28;20218;-74
2021/12/15 00:39:34;;;;;;;35.30;23.27;;;5.50;99.90;;;;;;5070612;28;20227;-74
2021/12/15 00:42:01;;;;;;;32.20;22.60;;;5.50;99.90;;;;;;5071003;28;20174;-74
2021/12/15 00:44:27;;;;;;;32.50;22.77;;;5.50;99.90;;;;;;5071287;28;20182;-75
2021/12/15 00:46:53;;;;;;;31.23;22.33;;;5.50;99.90;;;;;;5070890;28;20274;-75
2021/12/15 00:49:23;;;;;;;33.10;22.67;;;5.50;99.90;;;;;;5070698;28;20202;-75
2021/12/15 00:51:49;;;;;;;36.57;22.40;;;5.50;99.90;;;;;;5070867;28;20797;-75
2021/12/15 00:54:15;;;;;;;35.70;22.97;;;5.50;99.90;;;;;;5052974;28;20266;-74
2021/12/15 00:56:41;;;;;;;34.87;24.20;;;5.40;99.90;;;;;;5070831;28;20252;-74
2021/12/15 00:59:08;;;;;;;34.87;22.60;;;5.50;99.90;;;;;;5074289;28;20178;-74
2021/12/15 01:01:37;;;;;;;33.47;23.70;;;5.50;99.90;;;;;;5074797;28;20247;-75
2021/12/15 01:04:05;;;;;;;32.17;21.63;;;5.50;99.90;;;;;;5075022;28;20269;-75
2021/12/15 01:06:31;;;;;;;31.90;22.07;;;5.40;99.90;;;;;;5074651;28;20212;-75
2021/12/15 01:09:01;;;;;;;31.77;21.87;;;5.40;99.90;;;;;;5074848;28;20178;-74
2021/12/15 01:12:08;;;;;;;35.97;23.83;;;5.40;99.90;;;;;;5074440;28;20236;-75
2021/12/15 01:20:18;;;;;;;33.43;23.60;;;5.50;99.90;;;;;;5074315;28;20255;-74
2021/12/15 01:22:48;;;;;;;39.23;23.87;;;5.50;99.90;;;;;;5074541;28;20243;-74
2021/12/15 01:25:29;;;;;;;33.73;22.17;;;5.50;99.90;;;;;;5076639;28;20207;-74
2021/12/15 01:27:55;;;;;;;33.43;22.27;;;5.40;99.90;;;;;;5074961;28;20174;-75
2021/12/15 01:30:26;;;;;;;33.30;23.10;;;5.30;99.90;;;;;;5074328;28;20218;-75
2021/12/15 01:32:52;;;;;;;33.93;23.30;;;5.40;99.90;;;;;;5075208;28;20201;-75
2021/12/15 01:35:19;;;;;;;36.00;22.60;;;5.40;99.90;;;;;;5074852;28;20665;-76
2021/12/15 01:37:46;;;;;;;30.77;21.30;;;5.40;99.90;;;;;;5074908;28;20652;-75
2021/12/15 01:40:19;;;;;;;31.27;20.73;;;5.30;99.90;;;;;;5073793;28;20656;-75
2021/12/15 01:42:45;;;;;;;34.03;21.50;;;5.30;99.90;;;;;;5074638;28;20182;-75
2021/12/15 01:48:06;;;;;;;37.40;23.20;;;5.40;99.90;;;;;;5074227;28;20650;-74
2021/12/15 01:50:31;;;;;;;34.80;22.83;;;5.40;99.90;;;;;;5073135;28;20310;-74
2021/12/15 01:52:57;;;;;;;38.30;22.87;;;5.40;99.90;;;;;;5073825;28;20224;-74
2021/12/15 01:55:23;;;;;;;40.47;25.43;;;5.50;99.90;;;;;;5074096;28;20183;-74
2021/12/15 01:57:49;;;;;;;40.17;24.50;;;5.50;99.90;;;;;;5073838;28;20182;-74
2021/12/15 02:00:26;;;;;;;38.20;24.80;;;5.40;99.90;;;;;;5073150;28;20280;-74
2021/12/15 02:02:54;;;;;;;37.00;24.97;;;5.50;99.90;;;;;;5073551;28;20162;-74
2021/12/15 02:05:20;;;;;;;40.27;25.10;;;5.30;99.90;;;;;;5073621;28;20209;-74
2021/12/15 02:07:47;;;;;;;36.97;24.50;;;5.30;99.90;;;;;;5073572;28;20174;-74
2021/12/15 02:10:14;;;;;;;39.73;25.20;;;5.50;99.90;;;;;;5071688;28;20591;-74
2021/12/15 02:12:42;;;;;;;41.07;24.70;;;5.40;99.90;;;;;;5073739;28;20249;-74
2021/12/15 02:15:25;;;;;;;39.47;25.27;;;5.40;99.90;;;;;;5073576;28;20185;-75
2021/12/15 02:17:51;;;;;;;41.93;26.07;;;5.50;99.90;;;;;;5073336;28;20167;-74
2021/12/15 02:20:19;;;;;;;39.83;24.83;;;5.40;99.90;;;;;;5073009;28;20705;-74
2021/12/15 02:22:45;;;;;;;38.60;25.13;;;5.40;99.90;;;;;;5073522;28;20213;-74
2021/12/15 02:25:13;;;;;;;40.87;26.57;;;5.40;99.90;;;;;;5073347;28;20670;-74
2021/12/15 02:27:40;;;;;;;38.90;24.87;;;5.30;99.90;;;;;;5073262;28;20182;-74
2021/12/15 02:30:49;;;;;;;39.10;24.27;;;5.40;99.90;;;;;;5072504;28;20671;-74
2021/12/15 02:38:40;;;;;;;38.60;25.07;;;5.30;99.90;;;;;;5073248;28;20536;-74
2021/12/15 02:41:19;;;;;;;37.73;23.20;;;5.20;99.90;;;;;;5072534;28;20206;-74
2021/12/15 02:43:45;;;;;;;37.67;23.97;;;5.20;99.90;;;;;;5073072;28;20178;-74
2021/12/15 02:46:11;;;;;;;40.03;25.53;;;5.30;99.90;;;;;;5072964;28;20171;-74
2021/12/15 02:48:37;;;;;;;39.30;26.03;;;5.30;99.90;;;;;;5072916;28;20277;-74
2021/12/15 02:51:02;;;;;;;42.17;25.67;;;5.30;99.90;;;;;;5072115;28;20210;-74
2021/12/15 02:53:28;;;;;;;40.90;26.23;;;5.40;99.90;;;;;;5073094;28;20166;-74
2021/12/15 02:55:53;;;;;;;42.73;26.30;;;5.30;99.90;;;;;;5072752;28;20204;-74
2021/12/15 02:58:20;;;;;;;39.43;25.43;;;5.30;99.90;;;;;;5072630;28;20179;-74
2021/12/15 03:00:56;;;;;;;38.90;24.47;;;5.40;99.90;;;;;;5072126;28;20313;-74
2021/12/15 03:03:51;;;;;;;39.23;25.27;;;5.40;99.90;;;;;;5072489;28;20208;-74
2021/12/15 03:06:15;;;;;;;42.10;25.43;;;5.40;99.90;;;;;;5072309;28;20627;-74
2021/12/15 03:16:57;;;;;;;38.57;24.50;;;5.40;99.90;;;;;;5072603;28;20669;-74
2021/12/15 03:19:23;;;;;;;41.17;25.37;;;5.40;99.90;;;;;;5071872;28;20174;-74
2021/12/15 03:21:48;;;;;;;40.97;25.27;;;5.40;99.90;;;;;;5071637;28;20608;-74
2021/12/15 03:24:18;;;;;;;36.83;23.80;;;5.40;99.90;;;;;;5072110;28;20312;-75
2021/12/15 03:26:57;;;;;;;38.83;24.40;;;5.40;99.90;;;;;;5072447;28;20179;-75
2021/12/15 03:37:26;;;;;;;36.90;22.67;;;5.40;99.90;;;;;;5072080;28;20179;-74
2021/12/15 03:39:59;;;;;;;35.27;23.53;;;5.40;99.90;;;;;;5071325;28;20213;-75
2021/12/15 03:42:34;;;;;;;39.87;24.73;;;5.40;99.90;;;;;;5071657;28;20186;-74
2021/12/15 03:45:02;;;;;;;40.20;24.47;;;5.40;99.90;;;;;;5071840;28;20256;-74
2021/12/15 03:47:32;;;;;;;35.40;22.40;;;5.40;99.90;;;;;;5071631;28;20230;-74
2021/12/15 03:49:58;;;;;;;42.30;23.17;;;5.40;99.90;;;;;;5071307;28;20201;-74
2021/12/15 03:52:26;;;;;;;36.77;23.10;;;5.40;99.90;;;;;;5071684;28;20225;-74
2021/12/15 03:54:51;;;;;;;38.27;23.23;;;5.50;99.90;;;;;;5071752;28;20269;-75
2021/12/15 03:57:19;;;;;;;35.50;23.20;;;5.50;99.90;;;;;;5073540;28;20198;-74
2021/12/15 03:59:45;;;;;;;34.23;22.77;;;5.40;99.90;;;;;;5073740;28;20190;-74
2021/12/15 04:02:13;;;;;;;36.97;22.50;;;5.40;99.90;;;;;;5072747;28;20166;-74
2021/12/15 04:04:40;;;;;;;36.40;23.20;;;5.40;99.90;;;;;;5071841;28;20185;-73
2021/12/15 04:07:07;;;;;;;35.73;23.30;;;5.40;99.90;;;;;;5071299;28;20174;-73
2021/12/15 04:09:33;;;;;;;34.73;22.47;;;5.40;99.90;;;;;;5070852;28;20213;-74
2021/12/15 04:12:00;;;;;;;34.33;22.03;;;5.40;99.90;;;;;;5071408;28;20234;-74
2021/12/15 04:14:33;;;;;;;31.27;20.30;;;5.40;99.90;;;;;;5071260;28;20254;-73
2021/12/15 04:17:05;;;;;;;35.27;21.50;;;5.40;99.90;;;;;;5071628;28;20205;-74
2021/12/15 04:19:33;;;;;;;35.60;22.60;;;5.40;99.90;;;;;;5070876;28;20598;-74
2021/12/15 04:22:00;;;;;;;34.10;22.47;;;5.40;99.90;;;;;;5071342;28;20182;-74
2021/12/15 04:24:27;;;;;;;33.03;21.83;;;5.40;99.90;;;;;;5071257;28;20182;-74
2021/12/15 04:26:56;;;;;;;34.70;21.70;;;5.40;99.90;;;;;;5071100;28;20592;-73
2021/12/15 04:29:21;;;;;;;35.60;21.87;;;5.40;99.90;;;;;;5070723;28;20189;-73
2021/12/15 04:31:59;;;;;;;36.43;22.23;;;5.40;99.90;;;;;;5070988;28;20222;-74
2021/12/15 04:34:25;;;;;;;32.87;21.43;;;5.40;99.90;;;;;;5075157;28;20239;-74
2021/12/15 04:36:52;;;;;;;30.80;20.93;;;5.40;99.90;;;;;;5075835;28;20193;-74
2021/12/15 04:39:22;;;;;;;33.10;22.13;;;5.40;99.90;;;;;;5074826;28;20284;-74
2021/12/15 04:41:50;;;;;;;34.60;20.90;;;5.40;99.90;;;;;;5075514;28;20206;-74
2021/12/15 04:44:17;;;;;;;34.37;22.23;;;5.40;99.90;;;;;;5075476;28;20497;-74
2021/12/15 04:46:58;;;;;;;36.10;22.57;;;5.40;99.90;;;;;;5075387;28;20223;-73
2021/12/15 04:49:24;;;;;;;31.73;20.57;;;5.40;99.90;;;;;;5074716;28;20490;-73
2021/12/15 04:51:49;;;;;;;35.97;22.13;;;5.40;99.90;;;;;;5074783;28;20297;-73
2021/12/15 04:54:16;;;;;;;33.53;22.40;;;5.40;99.90;;;;;;5075196;28;20206;-73
2021/12/15 04:56:42;;;;;;;32.97;21.60;;;5.40;99.90;;;;;;5075142;28;20174;-73
2021/12/15 04:59:09;;;;;;;34.67;21.87;;;5.40;99.90;;;;;;5074747;28;20726;-73
2021/12/15 05:01:34;;;;;;;32.20;21.30;;;5.40;99.90;;;;;;5074692;28;20195;-73
2021/12/15 05:04:00;;;;;;;33.27;22.20;;;5.40;99.90;;;;;;5074830;28;20521;-73
2021/12/15 05:06:26;;;;;;;32.63;21.30;;;5.40;99.90;;;;;;5074539;28;20658;-73
2021/12/15 05:08:51;;;;;;;29.23;19.43;;;5.40;99.90;;;;;;5074561;28;20166;-73
2021/12/15 05:11:17;;;;;;;30.70;20.27;;;5.40;99.90;;;;;;5074134;28;20218;-73
2021/12/15 05:13:43;;;;;;;33.07;21.10;;;5.40;99.90;;;;;;5074541;28;20167;-74
2021/12/15 05:16:08;;;;;;;33.83;21.53;;;5.40;99.90;;;;;;5074724;28;20181;-74
2021/12/15 05:18:35;;;;;;;30.33;20.33;;;5.40;99.90;;;;;;5074498;28;20174;-74
2021/12/15 05:21:01;;;;;;;30.07;20.93;;;5.40;99.90;;;;;;5073660;28;20205;-73
2021/12/15 05:23:31;;;;;;;32.80;21.37;;;5.40;99.90;;;;;;5074429;28;20179;-74
2021/12/15 05:25:58;;;;;;;32.27;21.20;;;5.50;99.90;;;;;;5074536;28;20182;-73
2021/12/15 05:28:25;;;;;;;30.87;20.33;;;5.50;99.90;;;;;;5074607;28;20186;-72
2021/12/15 05:30:51;;;;;;;30.10;20.40;;;5.50;99.90;;;;;;5073957;28;20268;-73
2021/12/15 05:33:16;;;;;;;31.90;20.10;;;5.40;99.90;;;;;;5077924;28;20182;-72
2021/12/15 05:35:42;;;;;;;30.73;19.77;;;5.40;99.90;;;;;;5056135;28;20205;-73
2021/12/15 05:38:08;;;;;;;31.67;20.43;;;5.40;99.90;;;;;;5074313;28;20186;-73
2021/12/15 05:40:36;;;;;;;33.80;21.27;;;5.50;99.90;;;;;;5073692;28;20194;-73
2021/12/15 05:43:03;;;;;;;35.20;24.17;;;5.50;99.90;;;;;;5073512;28;20422;-73
2021/12/15 05:45:32;;;;;;;33.67;22.23;;;5.30;99.90;;;;;;5067157;28;20423;-74
2021/12/15 05:47:59;;;;;;;30.17;20.20;;;5.30;99.90;;;;;;5033615;28;20192;-73
2021/12/15 05:50:27;;;;;;;34.90;20.63;;;5.20;99.90;;;;;;5033227;28;20250;-73
2021/12/15 05:52:53;;;;;;;33.33;21.97;;;5.30;99.90;;;;;;5034522;28;20237;-73
2021/12/15 05:55:19;;;;;;;30.77;21.43;;;5.30;99.90;;;;;;5054036;28;20182;-73
2021/12/15 05:57:45;;;;;;;31.63;20.50;;;5.40;99.90;;;;;;5054036;28;20179;-73
2021/12/15 06:00:28;;;;;;;30.80;20.20;;;5.40;99.90;;;;;;5053204;28;20203;-73
2021/12/15 06:02:56;;;;;;;32.50;20.27;;;5.40;99.90;;;;;;5053853;28;20179;-73
2021/12/15 06:05:22;;;;;;;31.93;20.47;;;5.30;99.90;;;;;;5053928;28;20206;-73
2021/12/15 06:07:48;;;;;;;33.07;21.23;;;5.40;99.90;;;;;;5053757;28;20589;-73
2021/12/15 06:10:19;;;;;;;35.40;21.27;;;5.40;99.90;;;;;;5052991;28;20203;-73
2021/12/15 06:12:47;;;;;;;35.50;21.63;;;5.40;99.90;;;;;;5053759;28;20183;-73
2021/12/15 06:15:14;;;;;;;33.23;21.20;;;5.40;99.90;;;;;;5053495;28;20256;-73
2021/12/15 06:17:40;;;;;;;30.67;19.33;;;5.40;99.90;;;;;;5053566;28;20186;-73
2021/12/15 06:20:06;;;;;;;27.13;18.10;;;5.50;99.90;;;;;;5052809;28;20183;-73
2021/12/15 06:22:33;;;;;;;29.07;18.20;;;5.50;99.90;;;;;;5053385;28;20207;-73
2021/12/15 06:24:58;;;;;;;26.63;17.47;;;5.50;99.90;;;;;;5053440;28;20240;-73
2021/12/15 06:27:24;;;;;;;27.13;17.83;;;5.50;99.90;;;;;;5053093;28;20650;-74
2021/12/15 06:29:52;;;;;;;25.47;17.00;;;5.50;99.90;;;;;;5052498;28;20710;-73
2021/12/15 06:32:19;;;;;;;24.37;17.73;;;5.30;99.90;;;;;;5053401;28;20298;-73
2021/12/15 06:34:44;;;;;;;26.03;17.77;;;5.30;99.90;;;;;;5053021;28;20163;-74
2021/12/15 06:37:11;;;;;;;24.03;17.77;;;5.30;99.90;;;;;;5052880;28;20190;-74
2021/12/15 06:39:37;;;;;;;24.23;17.10;;;5.30;99.90;;;;;;5052582;28;20186;-73
2021/12/15 06:42:04;;;;;;;27.00;17.23;;;5.30;99.90;;;;;;5052861;28;20171;-73
2021/12/15 06:44:30;;;;;;;16.93;13.30;;;5.30;99.90;;;;;;5052799;28;20211;-74
2021/12/15 07:00:23;;;;;;;20.70;15.30;;;5.40;99.90;;;;;;5051962;28;20604;-73
2021/12/15 07:02:48;;;;;;;24.93;17.37;;;5.40;99.90;;;;;;5052225;28;20171;-73
2021/12/15 07:05:17;;;;;;;21.03;15.10;;;5.60;99.90;;;;;;5052315;28;20182;-73
2021/12/15 07:07:45;;;;;;;21.87;15.03;;;5.50;99.90;;;;;;5052429;28;20672;-73
2021/12/15 07:10:13;;;;;;;21.73;15.67;;;5.40;99.90;;;;;;5051938;28;20222;-73
2021/12/15 07:12:39;;;;;;;21.10;15.23;;;5.40;99.90;;;;;;5052391;28;20207;-74
2021/12/15 07:15:08;;;;;;;19.57;13.73;;;5.40;99.90;;;;;;5052398;28;20178;-73
2021/12/15 07:17:36;;;;;;;20.60;14.83;;;5.30;99.90;;;;;;5052202;28;20186;-73
2021/12/15 07:25:00;;;;;;;15.23;10.40;;;5.10;99.90;;;;;;5052340;28;20202;-73
2021/12/15 07:27:26;;;;;;;12.77;8.63;;;5.10;99.90;;;;;;5052073;28;20210;-73
2021/12/15 07:29:52;;;;;;;11.70;8.77;;;5.10;99.90;;;;;;5051512;28;20229;-73
2021/12/15 07:32:18;;;;;;;10.83;8.27;;;5.10;99.90;;;;;;5051860;28;20210;-73
2021/12/15 07:34:43;;;;;;;12.33;8.33;;;5.10;99.90;;;;;;5051830;28;20175;-73
2021/12/15 07:37:10;;;;;;;10.27;8.10;;;5.10;99.90;;;;;;5054379;28;20191;-73
2021/12/15 07:39:37;;;;;;;10.90;7.80;;;5.00;99.90;;;;;;5051621;28;20253;-73
2021/12/15 07:42:09;;;;;;;8.73;6.67;;;5.00;99.90;;;;;;5033881;28;20180;-73
2021/12/15 07:44:36;;;;;;;9.40;7.00;;;5.10;99.90;;;;;;5052431;28;20262;-74
2021/12/15 07:47:03;;;;;;;9.47;7.20;;;5.10;99.90;;;;;;5053692;28;20171;-73
2021/12/15 07:49:30;;;;;;;10.43;7.67;;;5.10;99.90;;;;;;5051317;28;20660;-73
2021/12/15 07:52:01;;;;;;;12.57;8.50;;;5.00;99.90;;;;;;5051598;28;20659;-72
2021/12/15 07:54:33;;;;;;;11.77;7.13;;;5.00;99.90;;;;;;5051786;28;20263;-73
2021/12/15 07:57:00;;;;;;;12.43;7.70;;;5.00;99.90;;;;;;5052028;28;20179;-72
2021/12/15 07:59:26;;;;;;;11.47;8.03;;;5.00;99.90;;;;;;5051403;28;20261;-72
2021/12/15 08:01:51;;;;;;;12.70;8.33;;;5.00;99.90;;;;;;5051688;28;20286;-73
2021/12/15 08:04:19;;;;;;;11.87;7.27;;;5.00;99.90;;;;;;5051651;28;20309;-72
2021/12/15 08:06:48;;;;;;;11.37;7.10;;;5.00;99.90;;;;;;5051433;28;20573;-72
2021/12/15 08:09:15;;;;;;;12.43;7.43;;;5.00;99.90;;;;;;5051019;28;20236;-73
2021/12/15 08:11:41;;;;;;;10.97;7.43;;;5.00;99.90;;;;;;5050864;28;20222;-72
2021/12/15 08:14:07;;;;;;;10.37;7.10;;;5.00;99.90;;;;;;5051499;28;20543;-73
2021/12/15 08:16:33;;;;;;;9.90;7.37;;;5.00;99.90;;;;;;5051056;28;20179;-73
2021/12/15 08:18:59;;;;;;;11.97;7.30;;;5.00;99.90;;;;;;5051439;28;20214;-72
2021/12/15 08:21:25;;;;;;;9.53;7.27;;;5.00;99.90;;;;;;5050673;28;20250;-73
2021/12/15 08:23:50;;;;;;;10.43;7.50;;;5.10;99.90;;;;;;5051002;28;20167;-72
2021/12/15 08:26:17;;;;;;;10.27;7.77;;;5.00;99.90;;;;;;5051113;28;20644;-73
2021/12/15 08:28:43;;;;;;;9.93;7.10;;;5.00;99.90;;;;;;5051146;28;20603;-72
2021/12/15 08:31:08;;;;;;;8.37;6.33;;;5.00;99.90;;;;;;5050783;28;20214;-73
2021/12/15 08:33:34;;;;;;;8.43;5.97;;;5.00;93.10;;;;;;5051378;28;20194;-72
2021/12/15 08:36:05;;;;;;;11.00;6.87;;;5.00;99.90;;;;;;5051114;28;20569;-73
2021/12/15 08:38:34;;;;;;;8.90;6.37;;;5.00;99.90;;;;;;5033117;28;20270;-72
2021/12/15 08:41:03;;;;;;;10.23;6.50;;;5.10;99.90;;;;;;5050558;28;20218;-72
2021/12/15 08:43:29;;;;;;;10.13;6.57;;;5.00;99.90;;;;;;5050922;28;20690;-73
2021/12/15 08:46:02;;;;;;;8.33;6.37;;;5.10;99.90;;;;;;5051121;28;20178;-72
2021/12/15 08:48:30;;;;;;;8.67;6.27;;;5.00;99.90;;;;;;5051248;28;20197;-73
2021/12/15 08:50:55;;;;;;;12.10;6.73;;;5.10;99.90;;;;;;5050499;28;20223;-72
2021/12/15 08:53:21;;;;;;;9.27;6.40;;;5.10;99.90;;;;;;5051028;28;20659;-72
2021/12/15 08:55:48;;;;;;;10.93;6.23;;;5.10;99.90;;;;;;5050996;28;20273;-72
2021/12/15 08:58:18;;;;;;;8.73;5.97;;;5.10;99.90;;;;;;5051088;28;20225;-72
2021/12/15 09:00:45;;;;;;;9.87;5.80;;;5.10;99.90;;;;;;5050482;28;20321;-73
2021/12/15 09:03:12;;;;;;;8.53;5.90;;;5.20;99.90;;;;;;5050858;28;20182;-72
2021/12/15 09:05:39;;;;;;;11.00;6.60;;;5.10;94.50;;;;;;5050850;28;20176;-73
2021/12/15 09:08:07;;;;;;;9.83;6.00;;;5.10;99.90;;;;;;5050651;28;20263;-72
2021/12/15 09:10:34;;;;;;;8.10;5.90;;;5.20;96.30;;;;;;5050202;28;20196;-73
2021/12/15 09:13:01;;;;;;;7.23;5.77;;;5.10;56.60;;;;;;5050556;28;20179;-72
2021/12/15 09:15:27;;;;;;;7.10;5.87;;;5.10;58.10;;;;;;5050695;28;20171;-73
2021/12/15 09:17:53;;;;;;;9.30;5.87;;;5.20;49.60;;;;;;5050750;28;20179;-73
2021/12/15 09:20:23;;;;;;;10.40;6.50;;;5.20;90.30;;;;;;5053632;28;20691;-72
2021/12/15 09:22:49;;;;;;;7.23;5.33;;;5.20;99.90;;;;;;5054447;28;20584;-73
2021/12/15 09:25:17;;;;;;;7.10;5.60;;;5.20;47.90;;;;;;5054323;28;20536;-72
2021/12/15 09:27:44;;;;;;;7.77;5.37;;;5.20;1.00;;;;;;5054432;28;20202;-72
2021/12/15 09:30:15;;;;;;;11.33;6.20;;;5.10;2.20;;;;;;5035670;28;20676;-72
2021/12/15 09:32:40;;;;;;;8.57;5.63;;;5.20;77.50;;;;;;5054387;28;20246;-72
2021/12/15 09:35:07;;;;;;;5.70;4.90;;;5.20;80.90;;;;;;5054072;28;20175;-73
2021/12/15 09:37:33;;;;;;;7.90;5.07;;;5.20;78.50;;;;;;5054487;28;20188;-72
2021/12/15 09:39:59;;;;;;;7.00;5.30;;;5.20;48.90;;;;;;5053804;28;20595;-73
2021/12/15 09:42:29;;;;;;;34.23;26.40;;;5.30;15.90;;;;;;5054357;28;20261;-73
2021/12/15 09:45:18;;;;;;;9.07;5.70;;;5.20;1.00;;;;;;5056337;28;20206;-73
2021/12/15 10:04:30;;;;;;;6.77;5.37;;;5.40;1.00;;;;;;5053753;28;20667;-73
2021/12/15 10:07:20;;;;;;;8.17;5.40;;;5.30;1.00;;;;;;5053623;28;20695;-73
2021/12/15 10:18:22;;;;;;;8.10;6.60;;;5.40;1.00;;;;;;5053618;28;20624;-73
2021/12/15 10:20:48;;;;;;;7.10;5.27;;;5.40;1.00;;;;;;5052746;28;20195;-73
2021/12/15 10:23:16;;;;;;;6.67;5.37;;;5.40;1.00;;;;;;5053152;28;20607;-73
2021/12/15 10:25:49;;;;;;;9.37;6.20;;;5.50;1.00;;;;;;5053396;28;20224;-73
2021/12/15 10:28:21;;;;;;;7.63;5.10;;;5.40;1.00;;;;;;5053686;28;20176;-73
2021/12/15 10:30:56;;;;;;;9.00;6.03;;;5.40;1.00;;;;;;5051542;28;20211;-73
2021/12/15 10:33:28;;;;;;;9.03;6.17;;;5.30;1.00;;;;;;5053281;28;20186;-73
2021/12/15 10:35:54;;;;;;;8.83;5.60;;;5.40;1.00;;;;;;5052735;28;20187;-73
2021/12/15 10:38:21;;;;;;;9.13;7.30;;;5.40;1.00;;;;;;5081782;22;20230;-77
2021/12/15 10:40:49;;;;;;;10.87;6.47;;;5.40;1.00;;;;;;5034051;28;20207;-77
2021/12/15 10:43:15;;;;;;;9.07;6.40;;;5.30;1.00;;;;;;5033017;28;20179;-76
2021/12/15 10:45:45;;;;;;;11.57;6.53;;;5.30;1.00;;;;;;5032725;28;20550;-76
2021/12/15 10:48:14;;;;;;;8.63;6.80;;;5.30;1.00;;;;;;5034917;28;20176;-76
2021/12/15 10:50:41;;;;;;;8.30;6.90;;;5.40;1.00;;;;;;5032692;28;20195;-77
2021/12/15 10:53:06;;;;;;;10.13;7.83;;;5.50;1.00;;;;;;5032848;28;20180;-76
2021/12/15 10:55:36;;;;;;;9.50;7.83;;;5.40;1.00;;;;;;5032405;28;20672;-76
2021/12/15 10:58:39;;;;;;;10.43;8.17;;;5.40;1.00;;;;;;5032134;28;20187;-75
2021/12/15 11:01:25;;;;;;;11.73;7.83;;;5.30;1.00;;;;;;5031530;28;20203;-76
2021/12/15 11:03:51;;;;;;;11.50;8.37;;;5.40;1.00;;;;;;5032169;28;20183;-76
2021/12/15 11:06:19;;;;;;;11.83;7.93;;;5.40;1.00;;;;;;5032109;28;20534;-76
2021/12/15 11:08:45;;;;;;;10.63;8.57;;;5.40;1.00;;;;;;5032027;28;20172;-76
2021/12/15 11:11:24;;;;;;;11.97;8.97;;;5.40;1.00;;;;;;5031326;28;20249;-75
2021/12/15 11:13:49;;;;;;;11.20;8.83;;;5.40;1.00;;;;;;5032043;28;20222;-76
2021/12/15 11:16:15;;;;;;;13.27;8.73;;;5.40;1.00;;;;;;5032143;28;20180;-75
2021/12/15 11:18:40;;;;;;;11.07;8.90;;;5.40;1.00;;;;;;5031948;28;20237;-76
2021/12/15 11:21:08;;;;;;;10.77;8.33;;;5.30;1.00;;;;;;5031360;28;20283;-76
2021/12/15 11:23:35;;;;;;;13.30;9.47;;;5.30;1.00;;;;;;5031832;28;20238;-75
2021/12/15 11:26:07;;;;;;;9.67;8.37;;;5.40;1.00;;;;;;5031758;28;20691;-76
2021/12/15 11:28:40;;;;;;;12.30;8.87;;;5.40;1.00;;;;;;5031688;28;20524;-76
2021/12/15 11:31:23;;;;;;;13.00;9.33;;;5.50;1.00;;;;;;5031263;28;20542;-76
2021/12/15 11:33:55;;;;;;;9.00;7.80;;;5.60;1.00;;;;;;5031861;28;20535;-77
2021/12/15 11:36:33;;;;;;;10.50;8.33;;;5.70;1.00;;;;;;5032147;28;20172;-77
2021/12/15 11:39:34;;;;;;;10.23;8.13;;;5.70;1.00;;;;;;5109709;27;20492;-76
2021/12/15 11:42:02;;;;;;;10.40;8.07;;;5.70;1.00;;;;;;5110062;28;20173;-76
2021/12/15 11:44:28;;;;;;;10.63;7.97;;;5.70;1.00;;;;;;5111409;28;20198;-75
2021/12/15 11:47:01;;;;;;;8.77;7.57;;;5.70;1.00;;;;;;5115493;28;20237;-77
2021/12/15 11:49:30;;;;;;;8.43;7.53;;;5.70;1.00;;;;;;5115846;28;20189;-77
2021/12/15 11:52:10;;;;;;;9.40;8.00;;;5.70;1.00;;;;;;5115873;28;20227;-75
2021/12/15 11:54:54;;;;;;;9.73;8.40;;;5.70;1.00;;;;;;5109499;28;20196;-76
2021/12/15 11:57:26;;;;;;;10.83;9.33;;;5.80;1.00;;;;;;5109593;28;20197;-77
2021/12/15 12:00:05;;;;;;;9.67;8.50;;;5.80;1.00;;;;;;5109095;28;20313;-76
2021/12/15 12:02:38;;;;;;;6.17;5.57;;;5.80;1.00;;;;;;5109538;28;20193;-76
2021/12/15 12:05:10;;;;;;;7.97;6.20;;;5.70;1.00;;;;;;5109348;28;20544;-76
2021/12/15 12:07:41;;;;;;;7.83;7.03;;;5.70;1.00;;;;;;5109251;28;20653;-77
2021/12/15 12:10:13;;;;;;;8.57;6.90;;;5.70;1.00;;;;;;5109037;28;20193;-76
2021/12/15 12:12:50;;;;;;;6.83;6.13;;;5.60;1.00;;;;;;5109154;28;20180;-77
2021/12/15 12:15:17;;;;;;;7.07;6.33;;;5.50;1.00;;;;;;5109414;28;20659;-77
2021/12/15 12:17:46;;;;;;;6.97;6.27;;;5.60;1.00;;;;;;5109270;28;20224;-76
2021/12/15 12:20:17;;;;;;;7.60;6.50;;;5.60;1.00;;;;;;5108410;28;20216;-76
2021/12/15 12:22:45;;;;;;;7.10;6.40;;;5.60;1.00;;;;;;5106607;28;20173;-74
2021/12/15 12:25:14;;;;;;;7.87;6.60;;;5.70;1.00;;;;;;5091391;28;20673;-76
2021/12/15 12:27:41;;;;;;;7.37;6.57;;;5.80;1.00;;;;;;5088965;28;20194;-77
2021/12/15 12:30:12;;;;;;;7.03;6.30;;;5.80;1.00;;;;;;5088151;27;20226;-77
2021/12/15 12:32:38;;;;;;;6.73;6.03;;;5.70;1.00;;;;;;5088984;28;20252;-77
2021/12/15 12:35:08;;;;;;;6.20;5.60;;;5.70;1.00;;;;;;5088581;28;20182;-78
2021/12/15 12:37:34;;;;;;;9.77;7.57;;;5.60;1.00;;;;;;5088262;28;20267;-77
2021/12/15 12:40:08;;;;;;;6.67;5.90;;;5.70;1.00;;;;;;5087556;28;20690;-76
2021/12/15 12:42:40;;;;;;;6.50;5.90;;;5.70;1.00;;;;;;5088296;28;20253;-77
2021/12/15 12:45:13;;;;;;;7.53;6.67;;;5.50;1.00;;;;;;5088236;28;20170;-77
2021/12/15 12:48:03;;;;;;;8.57;6.77;;;5.50;1.00;;;;;;5088306;28;20227;-78
2021/12/15 12:51:05;;;;;;;9.13;6.60;;;5.50;1.00;;;;;;5075239;28;20206;-77
2021/12/15 12:59:45;;;;;;;6.80;6.00;;;5.50;1.00;;;;;;5074210;28;20257;-77
2021/12/15 13:03:12;;;;;;;7.10;6.13;;;5.60;1.00;;;;;;5074792;28;20202;-77
2021/12/15 13:05:49;;;;;;;8.63;6.10;;;5.70;1.00;;;;;;5073952;28;20229;-77
2021/12/15 13:08:39;;;;;;;6.40;5.80;;;5.70;1.00;;;;;;5074531;28;20178;-78
2021/12/15 13:11:20;;;;;;;9.43;6.60;;;5.80;1.00;;;;;;5073609;28;20584;-78
2021/12/15 13:14:18;;;;;;;6.70;6.00;;;5.80;1.00;;;;;;5074296;28;20358;-77
2021/12/15 13:16:52;;;;;;;7.73;6.80;;;5.60;1.00;;;;;;5061826;28;20181;-77
2021/12/15 13:19:25;;;;;;;8.27;7.03;;;5.60;1.00;;;;;;5073621;28;20209;-78
2021/12/15 13:30:35;;;;;;;9.33;6.20;;;5.60;1.00;;;;;;5073581;28;20241;-77
2021/12/15 13:33:10;;;;;;;7.87;5.70;;;5.50;1.00;;;;;;5074235;28;20228;-77
2021/12/15 13:35:52;;;;;;;7.50;6.33;;;5.50;1.00;;;;;;5075427;28;20205;-77
2021/12/15 13:38:21;;;;;;;8.03;6.03;;;5.50;10.80;;;;;;5077581;28;20213;-77
2021/12/15 13:40:54;;;;;;;7.10;5.80;;;5.50;1.00;;;;;;5093326;28;20194;-78
2021/12/15 13:43:49;;;;;;;6.47;5.60;;;5.50;1.00;;;;;;5094098;28;20207;-76
2021/12/15 13:46:35;;;;;;;8.93;6.10;;;5.50;1.00;;;;;;5093656;28;20188;-75
2021/12/15 13:49:07;;;;;;;8.33;5.90;;;5.50;1.00;;;;;;5090043;28;20256;-77
2021/12/15 13:52:05;;;;;;;8.90;5.47;;;5.50;1.00;;;;;;5093310;28;20263;-77
2021/12/15 13:54:35;;;;;;;6.97;6.28;;;5.50;1.00;;;;;;5092425;28;20420;-76
2021/12/15 13:57:13;;;;;;;7.40;6.28;;;5.50;1.00;;;;;;5085234;28;20471;-78
2021/12/15 13:59:41;;;;;;;6.53;5.50;;;5.50;4.70;;;;;;5081642;28;20171;-74
2021/12/15 14:02:15;;;;;;;6.27;5.43;;;5.50;1.00;;;;;;5092492;28;20239;-76
2021/12/15 14:04:57;;;;;;;6.73;5.33;;;5.50;1.00;;;;;;5093663;28;20185;-76
2021/12/15 14:07:28;;;;;;;5.77;5.17;;;5.50;1.00;;;;;;5093720;28;20298;-75
2021/12/15 14:10:20;;;;;;;6.57;5.67;;;5.50;1.00;;;;;;5079352;28;20206;-75
2021/12/15 14:12:46;;;;;;;7.43;5.73;;;5.50;20.80;;;;;;5068519;28;20678;-76
2021/12/15 14:15:35;;;;;;;6.87;5.70;;;5.50;1.00;;;;;;5072967;28;20175;-77
2021/12/15 14:18:20;;;;;;;6.63;5.13;;;5.50;1.00;;;;;;5072596;28;20210;-76
2021/12/15 14:21:02;;;;;;;6.00;5.40;;;5.40;11.20;;;;;;5072708;28;20221;-77
2021/12/15 14:23:48;;;;;;;8.63;4.77;;;5.40;1.00;;;;;;5072826;28;20178;-76
2021/12/15 14:26:23;;;;;;;8.57;5.13;;;5.40;1.00;;;;;;5072714;28;20178;-76
2021/12/15 14:28:54;;;;;;;6.37;4.50;;;5.40;2.50;;;;;;5072766;28;20166;-76
2021/12/15 14:31:26;;;;;;;5.70;4.77;;;5.40;1.00;;;;;;5072422;28;20210;-77